Time;durP1;ratioP1;P1;durP2;ratioP2;P2;SDS_P1;SDS_P2;PMS_P1;PMS_P2;Temp;Humidity;BMP_temperature;BMP_pressure;BME280_temperature;BME280_humidity;BME280_pressure;Samples;Min_cycle;Max_cycle;Signal;HPM_P1;HPM_P2
2022/09/05 00:03:07;;;;;;;6.03;2.13;;;;;;;23.68;55.77;99559.72;6125091;23;20136;-89
2022/09/05 00:05:52;;;;;;;3.47;1.67;;;;;;;23.56;56.05;99544.88;6095300;23;20183;-90
2022/09/05 00:08:40;;;;;;;3.00;0.83;;;;;;;23.55;56.07;99559.25;6099506;23;20156;-89
2022/09/05 00:11:35;;;;;;;5.87;1.90;;;;;;;23.48;56.34;99560.84;6125488;23;20172;-89
2022/09/05 00:14:07;;;;;;;3.43;1.53;;;;;;;23.50;56.76;99563.38;6125511;23;20191;-89
2022/09/05 00:17:11;;;;;;;2.37;1.33;;;;;;;23.40;56.91;99552.72;6127333;23;20152;-89
2022/09/05 00:19:55;;;;;;;4.90;1.40;;;;;;;23.38;57.21;99564.56;6101923;23;20164;-89
2022/09/05 00:22:55;;;;;;;2.97;1.10;;;;;;;23.41;57.40;99572.31;6101760;23;20144;-88
2022/09/05 00:25:35;;;;;;;2.63;1.47;;;;;;;23.36;57.55;99564.69;6102410;23;20599;-94
2022/09/05 00:28:26;;;;;;;3.90;1.60;;;;;;;23.41;57.15;99573.16;6102771;23;20186;-95
2022/09/05 00:31:13;;;;;;;3.37;1.50;;;;;;;23.40;57.12;99566.09;6103069;23;20578;-95
2022/09/05 00:33:51;;;;;;;3.13;1.60;;;;;;;23.36;57.23;99564.69;6103126;23;20242;-96
2022/09/05 00:36:46;;;;;;;4.43;1.53;;;;;;;23.36;57.49;99574.56;6103350;23;20155;-95
2022/09/05 00:39:28;;;;;;;2.73;1.33;;;;;;;23.29;58.25;99570.81;6111822;23;20155;-95
2022/09/05 00:41:58;;;;;;;2.40;1.30;;;;;;;23.33;57.60;99570.34;6102375;23;20518;-95
2022/09/05 00:44:29;;;;;;;3.40;1.47;;;;;;;23.29;57.74;99568.97;6103051;23;20151;-94
2022/09/05 00:47:05;;;;;;;3.77;1.93;;;;;;;23.28;58.06;99578.00;6104087;23;20168;-95
2022/09/05 00:49:48;;;;;;;4.00;1.73;;;;;;;23.23;58.49;99574.94;6107628;23;20170;-94
2022/09/05 00:52:52;;;;;;;5.90;2.20;;;;;;;23.20;58.39;99578.75;6103387;23;20140;-95
2022/09/05 00:55:23;;;;;;;3.73;1.60;;;;;;;23.19;58.53;99578.91;6078964;23;20254;-88
2022/09/05 00:58:17;;;;;;;7.77;1.80;;;;;;;23.19;58.44;99574.38;6101433;23;20258;-89
2022/09/05 01:00:54;;;;;;;4.03;1.90;;;;;;;23.18;58.46;99571.88;6101463;23;20190;-89
2022/09/05 01:03:35;;;;;;;4.17;2.03;;;;;;;23.22;58.33;99578.59;6101500;23;20148;-89
2022/09/05 01:06:21;;;;;;;3.27;1.50;;;;;;;23.17;58.40;99571.00;6101493;23;20144;-89
2022/09/05 01:09:16;;;;;;;3.70;1.57;;;;;;;23.14;58.51;99565.13;6102193;23;20158;-89
2022/09/05 01:11:56;;;;;;;3.83;1.50;;;;;;;23.14;58.58;99565.97;6127326;23;20529;-89
2022/09/05 01:14:59;;;;;;;3.87;1.77;;;;;;;23.09;58.78;99564.72;6126876;23;20167;-89
2022/09/05 01:18:00;;;;;;;2.40;1.40;;;;;;;22.97;59.16;99561.44;6127340;23;20139;-89
2022/09/05 01:21:11;;;;;;;3.00;1.50;;;;;;;22.97;59.07;99558.75;6127303;23;20203;-89
2022/09/05 01:24:03;;;;;;;3.00;1.63;;;;;;;22.93;59.55;99551.19;6101403;23;20140;-89
2022/09/05 01:26:54;;;;;;;4.37;1.83;;;;;;;22.86;59.49;99550.06;6010031;23;20189;-89
2022/09/05 01:29:37;;;;;;;2.53;1.43;;;;;;;22.83;59.95;99547.69;6126874;23;20151;-88
2022/09/05 01:32:40;;;;;;;3.33;1.40;;;;;;;22.81;59.63;99547.00;6127174;23;20170;-88
2022/09/05 01:35:46;;;;;;;3.33;1.63;;;;;;;22.78;59.79;99542.78;6126655;23;20189;-89
2022/09/05 01:38:33;;;;;;;5.03;1.80;;;;;;;22.76;60.04;99539.44;6102430;23;20186;-89
2022/09/05 01:41:38;;;;;;;3.73;1.60;;;;;;;22.65;60.44;99536.94;6101076;23;20230;-89
2022/09/05 01:44:41;;;;;;;4.87;1.77;;;;;;;22.64;60.44;99532.59;6127790;23;20132;-89
2022/09/05 01:47:25;;;;;;;6.87;1.80;;;;;;;22.67;60.10;99540.31;6127660;23;20147;-89
2022/09/05 01:50:12;;;;;;;4.87;1.80;;;;;;;22.67;60.51;99539.50;6126575;23;20179;-89
2022/09/05 01:52:58;;;;;;;3.10;1.60;;;;;;;22.68;60.37;99538.47;6126942;23;20140;-89
2022/09/05 01:55:40;;;;;;;3.07;1.47;;;;;;;22.70;60.38;99545.38;6101041;23;20246;-88
2022/09/05 01:58:15;;;;;;;7.43;1.90;;;;;;;22.69;60.12;99545.53;6126632;23;20174;-89
2022/09/05 02:00:41;;;;;;;3.87;1.73;;;;;;;22.69;60.03;99550.88;6126843;23;20139;-89
2022/09/05 02:03:25;;;;;;;2.73;1.50;;;;;;;22.64;60.51;99552.13;6100952;23;20477;-89
2022/09/05 02:06:26;;;;;;;4.43;2.20;;;;;;;22.64;60.73;99552.13;6126886;23;20132;-89
2022/09/05 02:09:08;;;;;;;4.07;1.60;;;;;;;22.60;60.75;99545.38;6126821;23;20234;-90
2022/09/05 02:12:15;;;;;;;3.87;2.27;;;;;;;22.57;60.69;99553.69;6127129;23;20471;-89
2022/09/05 02:14:50;;;;;;;3.37;1.63;;;;;;;22.62;60.68;99562.13;6100825;23;20182;-89
2022/09/05 02:17:34;;;;;;;4.83;2.10;;;;;;;22.58;60.69;99558.06;6101962;23;20154;-89
2022/09/05 02:20:39;;;;;;;3.63;1.83;;;;;;;22.48;60.80;99559.88;6126716;23;20140;-89
2022/09/05 02:23:14;;;;;;;3.60;1.93;;;;;;;22.43;61.26;99558.66;6110917;23;20238;-90
2022/09/05 02:26:15;;;;;;;3.10;1.67;;;;;;;22.44;60.77;99557.66;6100873;23;20294;-89
2022/09/05 02:28:46;;;;;;;3.40;1.77;;;;;;;22.41;61.00;99566.81;6062523;23;20206;-89
2022/09/05 02:31:24;;;;;;;4.87;2.10;;;;;;;22.35;61.03;99555.88;6126938;23;20179;-89
2022/09/05 02:34:06;;;;;;;6.73;1.80;;;;;;;22.29;61.40;99565.31;6126279;23;20170;-89
2022/09/05 02:36:56;;;;;;;3.83;2.13;;;;;;;22.28;60.92;99558.25;6126627;23;20140;-89
2022/09/05 02:39:46;;;;;;;4.97;2.03;;;;;;;22.24;61.11;99559.56;6098349;23;20163;-89
2022/09/05 02:43:05;;;;;;;5.23;1.93;;;;;;;22.25;60.86;99552.41;6100865;23;20144;-89
2022/09/05 02:45:31;;;;;;;4.57;1.80;;;;;;;22.23;60.98;99559.69;6037805;23;20166;-89
2022/09/05 02:48:20;;;;;;;4.10;1.80;;;;;;;22.26;60.70;99564.75;6038037;23;20154;-89
2022/09/05 02:51:01;;;;;;;3.83;1.83;;;;;;;22.25;60.46;99569.22;6093207;23;20172;-90
2022/09/05 02:53:28;;;;;;;4.43;1.90;;;;;;;22.21;60.57;99569.66;6126857;23;20177;-89
2022/09/05 02:55:53;;;;;;;5.87;1.60;;;;;;;22.21;60.70;99565.19;6126273;23;20247;-88
2022/09/05 02:58:34;;;;;;;3.67;2.00;;;;;;;22.18;60.62;99569.94;6100858;23;20505;-89
2022/09/05 03:01:09;;;;;;;5.03;1.70;;;;;;;22.18;60.63;99569.94;6126520;23;20147;-89
2022/09/05 03:03:42;;;;;;;4.20;2.00;;;;;;;22.17;60.75;99571.78;6126241;23;20624;-89
2022/09/05 03:06:31;;;;;;;4.57;2.10;;;;;;;22.12;60.89;99568.69;6100712;23;20573;-89
2022/09/05 03:09:14;;;;;;;4.57;2.13;;;;;;;22.15;60.87;99570.22;6126564;23;20148;-89
2022/09/05 03:12:02;;;;;;;2.73;1.17;;;;;;;22.11;60.86;99574.19;6126559;23;20136;-88
2022/09/05 03:15:05;;;;;;;2.87;1.63;;;;;;;22.11;60.66;99571.53;6101205;23;20176;-89
2022/09/05 03:18:02;;;;;;;3.47;1.83;;;;;;;22.06;60.74;99571.97;6126144;23;20187;-89
2022/09/05 03:21:05;;;;;;;4.67;2.30;;;;;;;22.01;61.12;99584.91;6077073;23;20164;-89
2022/09/05 03:23:46;;;;;;;8.10;4.07;;;;;;;21.90;61.68;99575.22;6101229;23;20155;-89
2022/09/05 03:26:12;;;;;;;10.03;3.83;;;;;;;21.88;61.38;99581.66;6126750;23;20219;-89
2022/09/05 03:29:15;;;;;;;5.37;2.80;;;;;;;21.85;61.32;99573.91;6126456;23;20179;-90
2022/09/05 03:31:52;;;;;;;4.37;2.00;;;;;;;21.83;61.42;99581.19;6100606;23;20151;-89
2022/09/05 03:34:59;;;;;;;9.23;2.57;;;;;;;21.81;61.63;99583.16;6102266;23;20188;-89
2022/09/05 03:37:53;;;;;;;4.07;1.90;;;;;;;21.77;61.34;99584.44;6128597;23;20143;-88
2022/09/05 03:40:54;;;;;;;5.13;1.90;;;;;;;21.79;61.31;99585.13;6102341;23;20147;-89
2022/09/05 03:43:38;;;;;;;5.10;2.17;;;;;;;21.82;61.08;99574.19;6127804;23;20143;-89
2022/09/05 03:46:22;;;;;;;4.30;1.80;;;;;;;21.76;61.36;99580.06;6128050;23;20215;-89
2022/09/05 03:48:59;;;;;;;3.27;1.57;;;;;;;21.77;61.16;99579.94;6128093;23;20175;-88
2022/09/05 03:51:49;;;;;;;4.03;1.80;;;;;;;21.72;61.14;99581.34;6128134;23;20159;-88
2022/09/05 03:54:31;;;;;;;4.57;2.30;;;;;;;21.67;61.49;99591.59;6128015;23;20175;-89
2022/09/05 03:57:03;;;;;;;3.23;1.83;;;;;;;21.57;61.62;99590.72;6102226;23;20151;-89
2022/09/05 03:59:56;;;;;;;4.23;1.87;;;;;;;21.59;61.28;99591.47;6125590;23;20151;-89
2022/09/05 04:02:27;;;;;;;5.07;1.60;;;;;;;21.55;61.35;99598.88;6127607;23;20144;-89
2022/09/05 04:05:10;;;;;;;3.63;1.50;;;;;;;21.49;61.73;99603.94;6127543;23;20436;-89
2022/09/05 04:07:45;;;;;;;4.07;2.17;;;;;;;21.51;61.77;99597.50;6127978;23;20619;-89
2022/09/05 04:10:35;;;;;;;2.07;1.40;;;;;;;21.55;61.63;99600.69;6127864;23;20197;-89
2022/09/05 04:13:03;;;;;;;3.73;1.97;;;;;;;21.56;61.57;99602.41;6127235;23;20155;-89
2022/09/05 04:15:39;;;;;;;4.97;1.80;;;;;;;21.56;61.54;99602.41;6101851;23;20156;-89
2022/09/05 04:18:23;;;;;;;5.67;1.63;;;;;;;21.57;61.17;99606.72;6101954;23;20454;-89
2022/09/05 04:20:54;;;;;;;3.17;1.80;;;;;;;21.52;61.41;99611.66;6126445;23;20144;-89
2022/09/05 04:23:38;;;;;;;2.53;1.40;;;;;;;21.52;61.14;99619.66;6124705;23;20132;-89
2022/09/05 04:26:23;;;;;;;3.17;1.80;;;;;;;21.52;61.01;99619.66;6101470;23;20156;-89
2022/09/05 04:29:24;;;;;;;5.70;1.53;;;;;;;21.51;61.10;99623.31;6101847;23;20148;-89
2022/09/05 04:32:00;;;;;;;3.60;1.87;;;;;;;21.43;61.36;99632.81;6101734;23;20152;-89
2022/09/05 04:35:03;;;;;;;3.43;1.47;;;;;;;21.50;61.44;99632.28;6101749;23;20530;-89
2022/09/05 04:37:45;;;;;;;5.17;1.40;;;;;;;21.44;61.71;99642.53;6101786;23;20546;-89
2022/09/05 04:40:54;;;;;;;3.47;1.50;;;;;;;21.47;61.52;99645.88;6101845;23;20155;-89
2022/09/05 04:43:27;;;;;;;8.00;1.50;;;;;;;21.51;61.34;99650.00;6127494;23;20146;-89
2022/09/05 04:46:21;;;;;;;3.50;1.50;;;;;;;21.57;61.44;99649.41;6127121;23;20140;-89
2022/09/05 04:48:58;;;;;;;3.93;1.40;;;;;;;21.58;61.43;99651.13;6101654;23;20148;-89
2022/09/05 04:51:24;;;;;;;3.20;1.47;;;;;;;21.66;61.12;99660.13;6127912;23;20163;-89
2022/09/05 04:54:08;;;;;;;4.90;1.80;;;;;;;21.74;61.24;99654.09;6101476;23;20546;-89
2022/09/05 04:56:39;;;;;;;3.30;1.53;;;;;;;21.80;60.82;99653.56;6102338;23;20186;-89
2022/09/05 04:59:15;;;;;;;5.73;1.97;;;;;;;21.84;60.80;99654.94;6128356;23;20164;-89
2022/09/05 05:01:55;;;;;;;6.47;1.97;;;;;;;21.83;60.49;99653.25;6127453;23;20139;-89
2022/09/05 05:04:24;;;;;;;3.43;1.73;;;;;;;21.91;60.83;99658.78;6127491;23;20132;-89
2022/09/05 05:07:06;;;;;;;4.10;1.80;;;;;;;22.04;60.44;99662.00;6101394;23;20156;-89
2022/09/05 05:10:02;;;;;;;2.53;1.43;;;;;;;22.12;60.27;99659.47;6127703;23;20136;-89
2022/09/05 05:12:59;;;;;;;2.43;1.23;;;;;;;22.20;59.65;99664.97;6104153;23;20166;-89
2022/09/05 05:15:30;;;;;;;3.23;1.33;;;;;;;22.29;59.23;99669.47;6102279;23;20573;-89
2022/09/05 05:18:23;;;;;;;3.43;1.40;;;;;;;22.34;59.05;99666.38;6102102;23;20148;-88
2022/09/05 05:21:09;;;;;;;3.27;1.50;;;;;;;22.41;58.15;99657.63;6101521;23;20160;-89
2022/09/05 05:23:41;;;;;;;3.20;1.57;;;;;;;22.34;58.95;99661.88;6127266;23;20545;-88
2022/09/05 05:26:12;;;;;;;5.90;1.70;;;;;;;22.33;58.17;99660.19;6126909;23;20203;-88
2022/09/05 05:28:51;;;;;;;3.87;1.63;;;;;;;22.54;57.58;99666.19;6127243;23;20167;-88
2022/09/05 05:31:24;;;;;;;2.70;1.60;;;;;;;22.69;56.74;99655.94;6127199;23;20140;-89
2022/09/05 05:33:53;;;;;;;3.60;1.67;;;;;;;22.77;56.12;99663.25;6127057;23;20179;-88
2022/09/05 05:36:31;;;;;;;3.43;1.33;;;;;;;22.79;55.37;99661.25;6127068;23;20155;-88
2022/09/05 05:39:26;;;;;;;2.80;1.27;;;;;;;22.90;55.41;99661.94;6127452;23;20147;-92
2022/09/05 05:41:54;;;;;;;2.63;1.13;;;;;;;22.81;55.99;99669.97;6127103;23;20148;-89
2022/09/05 05:44:27;;;;;;;4.83;1.53;;;;;;;22.93;55.79;99672.31;6127391;23;20212;-89
2022/09/05 05:47:03;;;;;;;2.73;1.30;;;;;;;22.98;55.70;99675.38;6127016;23;20136;-89
2022/09/05 05:50:00;;;;;;;3.00;1.30;;;;;;;23.07;54.50;99681.69;6102594;23;20151;-90
2022/09/05 05:52:28;;;;;;;3.77;1.63;;;;;;;23.09;55.05;99682.38;6126704;23;20136;-89
2022/09/05 05:55:25;;;;;;;3.73;1.63;;;;;;;23.30;53.61;99683.00;6126408;23;20175;-89
2022/09/05 05:58:05;;;;;;;2.13;1.10;;;;;;;23.40;53.13;99683.84;6126656;23;20167;-88
2022/09/05 06:00:54;;;;;;;3.47;1.80;;;;;;;23.48;52.96;99681.25;6126380;23;20183;-89
2022/09/05 06:03:45;;;;;;;3.90;1.50;;;;;;;23.49;53.55;99688.31;6100489;23;20230;-89
2022/09/05 06:06:21;;;;;;;2.20;1.10;;;;;;;23.68;52.56;99687.34;6100889;23;20148;-89
2022/09/05 06:09:24;;;;;;;2.80;1.30;;;;;;;23.77;52.01;99692.66;6126698;23;20136;-89
2022/09/05 06:12:02;;;;;;;5.43;1.43;;;;;;;23.90;50.74;99691.44;6126496;23;20218;-89
2022/09/05 06:14:47;;;;;;;2.97;1.10;;;;;;;23.93;50.67;99693.81;6100872;23;20186;-88
2022/09/05 06:17:53;;;;;;;3.57;1.10;;;;;;;24.02;49.82;99690.22;6100926;23;20230;-89
2022/09/05 06:20:46;;;;;;;2.63;0.90;;;;;;;24.07;50.41;99693.28;6100935;23;20479;-88
2022/09/05 06:23:23;;;;;;;3.77;1.37;;;;;;;24.17;49.50;99692.25;6126915;23;20559;-89
2022/09/05 06:26:03;;;;;;;4.07;1.00;;;;;;;24.36;49.20;99693.94;6127130;23;20136;-91
2022/09/05 06:28:41;;;;;;;3.37;1.40;;;;;;;24.52;48.12;99696.75;6126807;23;20455;-88
2022/09/05 06:31:23;;;;;;;3.43;1.40;;;;;;;24.65;48.05;99693.66;6126536;23;20222;-89
2022/09/05 06:34:02;;;;;;;2.47;1.23;;;;;;;24.70;48.40;99691.34;6126320;23;20182;-88
2022/09/05 06:36:37;;;;;;;2.37;1.00;;;;;;;24.90;47.53;99693.69;6100691;23;20144;-89
2022/09/05 06:39:02;;;;;;;2.50;1.10;;;;;;;24.91;46.58;99689.19;6127107;23;20140;-88
2022/09/05 06:41:33;;;;;;;3.63;1.20;;;;;;;25.11;46.08;99687.09;6126481;23;20176;-89
2022/09/05 06:44:18;;;;;;;2.20;1.00;;;;;;;25.33;45.81;99683.88;6125982;23;20435;-89
2022/09/05 06:46:45;;;;;;;3.83;1.07;;;;;;;25.38;44.83;99686.91;6126003;23;20162;-89
2022/09/05 06:49:24;;;;;;;4.93;0.80;;;;;;;25.40;44.95;99690.28;6126604;23;20148;-88
2022/09/05 06:52:25;;;;;;;3.03;0.83;;;;;;;25.55;43.78;99691.41;6126396;23;20148;-89
2022/09/05 06:55:34;;;;;;;1.30;0.70;;;;;;;25.84;43.14;99694.47;6126135;23;20171;-90
2022/09/05 06:58:46;;;;;;;2.10;0.90;;;;;;;26.15;42.49;99705.50;6089897;23;20254;-89
2022/09/05 07:01:15;;;;;;;5.70;0.83;;;;;;;26.15;42.49;99708.19;6126208;23;20244;-89
2022/09/05 07:04:08;;;;;;;2.80;1.03;;;;;;;26.34;41.49;99705.19;6126166;23;20467;-89
2022/09/05 07:07:00;;;;;;;2.10;0.80;;;;;;;26.63;41.84;99705.53;6101070;23;20152;-90
2022/09/05 07:09:47;;;;;;;3.63;0.80;;;;;;;26.54;40.80;99719.16;6103276;23;20148;-89
2022/09/05 07:12:31;;;;;;;6.18;1.67;;;;;;;26.52;41.23;99710.41;6128525;23;20179;-89
2022/09/05 07:15:32;;;;;;;1.50;0.90;;;;;;;26.87;41.05;99703.84;6128683;23;20206;-90
2022/09/05 07:18:37;;;;;;;4.37;0.70;;;;;;;26.89;41.29;99708.03;6127410;23;20170;-91
2022/09/05 07:21:31;;;;;;;2.35;1.00;;;;;;;27.10;40.83;99700.25;6091916;23;20163;-91
2022/09/05 07:24:26;;;;;;;4.30;1.10;;;;;;;27.04;39.62;99708.19;6103586;23;20471;-90
2022/09/05 07:26:56;;;;;;;0.85;0.50;;;;;;;27.15;39.41;99707.84;6102719;23;20152;-88
2022/09/05 07:33:05;;;;;;;4.72;0.70;;;;;;;27.65;40.06;99697.56;6117104;23;20156;-90
2022/09/05 07:35:49;;;;;;;3.50;0.70;;;;;;;27.86;38.61;99699.63;6101885;23;20160;-89
2022/09/05 07:39:18;;;;;;;1.25;0.77;;;;;;;27.95;38.20;99703.97;6124450;23;20167;-93
2022/09/05 07:42:20;;;;;;;;;;;;;;;;;;;;;
2022/09/05 07:53:24;;;;;;;;;;;;;;;;;;;;;
2022/09/05 07:56:53;;;;;;;;;;;;;;;;;;;;;
2022/09/05 08:00:24;;;;;;;;;;;;;;;;;;;;;
2022/09/05 08:06:36;;;;;;;1.58;0.80;;;;;;;28.68;36.34;99707.03;6039031;23;20233;-90
2022/09/05 08:09:51;;;;;;;1.70;0.73;;;;;;;28.54;36.67;99697.84;6000412;23;20246;-90
2022/09/05 08:16:37;;;;;;;;;;;;;;;;;;;;;
2022/09/05 08:19:18;;;;;;;;;;;;;;;;;;;;;
2022/09/05 08:23:02;;;;;;;3.88;1.10;;;;;;;28.42;37.64;99693.06;5767336;24;20220;-91
2022/09/05 08:29:41;;;;;;;3.00;1.08;;;;;;;28.83;37.01;99686.31;5740393;24;20606;-92
2022/09/05 08:33:16;;;;;;;1.92;0.85;;;;;;;28.51;36.27;99695.50;5686549;24;20181;-91
2022/09/05 08:39:37;;;;;;;1.65;0.80;;;;;;;29.08;35.28;99678.81;5845293;24;20564;-91
2022/09/05 08:42:08;;;;;;;1.10;0.47;;;;;;;29.10;35.38;99677.59;5884506;23;20158;-90
2022/09/05 08:45:18;;;;;;;;;;;;;;;;;;;;;
2022/09/05 08:47:46;;;;;;;0.88;0.45;;;;;;;29.22;35.33;99669.88;6084823;23;20231;-90
2022/09/05 08:50:43;;;;;;;;;;;;;;;;;;;;;
2022/09/05 08:54:03;;;;;;;0.85;0.50;;;;;;;29.47;34.00;99673.13;6097419;23;20574;-91
2022/09/05 08:56:49;;;;;;;1.05;0.60;;;;;;;29.43;34.19;99671.84;6017289;23;20160;-89
2022/09/05 08:59:27;;;;;;;3.97;1.00;;;;;;;29.55;35.01;99671.19;6098462;23;20589;-91
2022/09/05 09:02:37;;;;;;;;;;;;;;;;;;;;;
2022/09/05 09:05:20;;;;;;;1.27;0.57;;;;;;;29.75;34.11;99661.44;6098563;23;20612;-90
2022/09/05 09:08:19;;;;;;;;;;;;;;;;;;;;;
2022/09/05 09:11:25;;;;;;;;;;;;;;;;;;;;;
2022/09/05 09:13:59;;;;;;;1.67;0.82;;;;;;;29.93;34.24;99652.91;6047790;23;20570;-91
2022/09/05 09:17:02;;;;;;;1.15;0.40;;;;;;;30.29;32.65;99659.09;6098152;23;20137;-92
2022/09/05 09:19:59;;;;;;;1.02;0.50;;;;;;;30.41;33.23;99649.47;5982757;24;20487;-90
2022/09/05 09:22:57;;;;;;;0.82;0.22;;;;;;;30.59;32.66;99640.88;5973783;24;20191;-91
2022/09/05 09:25:28;;;;;;;1.30;0.43;;;;;;;30.70;32.05;99637.63;5982825;24;20158;-89
2022/09/05 09:28:30;;;;;;;1.20;0.47;;;;;;;30.72;31.66;99634.72;5982381;24;20546;-89
2022/09/05 09:31:32;;;;;;;2.67;0.45;;;;;;;30.91;31.08;99637.59;5981870;24;20631;-92
2022/09/05 09:34:20;;;;;;;0.95;0.40;;;;;;;30.63;31.86;99644.03;5955008;24;20182;-89
2022/09/05 09:37:23;;;;;;;1.27;0.47;;;;;;;31.03;32.79;99638.72;6056370;23;20169;-90
2022/09/05 09:43:16;;;;;;;0.50;0.30;;;;;;;30.90;30.96;99645.88;6082362;23;20512;-88
2022/09/05 09:46:19;;;;;;;0.90;0.40;;;;;;;30.78;30.79;99645.59;6098472;23;20593;-91
2022/09/05 09:49:39;;;;;;;0.93;0.43;;;;;;;30.92;30.95;99646.56;6097725;23;20163;-92
2022/09/05 09:52:26;;;;;;;1.08;0.38;;;;;;;31.13;30.91;99634.81;6096815;23;20176;-89
2022/09/05 09:55:21;;;;;;;1.52;0.50;;;;;;;31.20;30.25;99635.69;6072259;23;20196;-91
2022/09/05 09:58:06;;;;;;;1.05;0.63;;;;;;;31.29;30.28;99632.59;6072216;23;20585;-90
2022/09/05 10:01:09;;;;;;;0.95;0.50;;;;;;;31.14;29.58;99631.06;6072225;23;20180;-89
2022/09/05 10:04:09;;;;;;;;;;;;;;;;;;;;;
2022/09/05 10:07:34;;;;;;;1.48;0.47;;;;;;;31.38;30.18;99623.25;6092814;23;20545;-90
2022/09/05 10:10:37;;;;;;;1.45;0.40;;;;;;;30.83;30.99;99623.34;6072108;23;20148;-91
2022/09/05 10:13:29;;;;;;;2.28;0.63;;;;;;;30.84;30.17;99627.75;6072071;23;20219;-91
2022/09/05 10:16:42;;;;;;;;;;;;;;;;;;;;;
2022/09/05 10:19:29;;;;;;;1.15;0.35;;;;;;;31.47;29.58;99618.53;6097247;23;20231;-90
2022/09/05 10:22:01;;;;;;;2.35;0.47;;;;;;;31.56;29.45;99620.00;6072060;23;20202;-89
2022/09/05 10:24:49;;;;;;;1.27;0.38;;;;;;;31.56;29.19;99622.72;6072104;23;20148;-88
2022/09/05 10:27:47;;;;;;;0.50;0.20;;;;;;;31.66;28.47;99622.38;6003311;23;20160;-91
2022/09/05 10:30:47;;;;;;;2.00;0.50;;;;;;;31.53;28.97;99618.56;6070395;23;20160;-91
2022/09/05 10:33:53;;;;;;;1.45;0.40;;;;;;;31.53;28.36;99615.00;6071986;23;20152;-90
2022/09/05 10:39:53;;;;;;;1.25;0.60;;;;;;;32.13;27.92;99611.41;6079714;23;20167;-91
2022/09/05 10:42:33;;;;;;;0.50;0.28;;;;;;;32.05;27.85;99608.91;6097308;23;20132;-90
2022/09/05 10:45:02;;;;;;;0.80;0.30;;;;;;;32.02;27.28;99609.31;6071903;23;20592;-88
2022/09/05 10:48:04;;;;;;;;;;;;;;;;;;;;;
2022/09/05 10:50:41;;;;;;;1.42;0.35;;;;;;;32.04;28.38;99607.25;6097731;23;20215;-90
2022/09/05 10:53:40;;;;;;;;;;;;;;;;;;;;;
2022/09/05 10:56:30;;;;;;;0.57;0.20;;;;;;;32.20;27.46;99601.41;6097674;23;20543;-90
2022/09/05 10:59:31;;;;;;;0.65;0.32;;;;;;;32.31;27.36;99591.81;6071837;23;20158;-90
2022/09/05 11:02:13;;;;;;;0.57;0.20;;;;;;;31.96;27.60;99589.25;6036549;23;20160;-90
2022/09/05 11:05:16;;;;;;;0.30;0.20;;;;;;;31.85;27.30;99591.72;6097287;23;20143;-92
2022/09/05 11:07:47;;;;;;;1.45;0.20;;;;;;;31.89;27.47;99596.53;6054311;23;20148;-89
2022/09/05 11:10:30;;;;;;;1.25;0.32;;;;;;;32.22;28.01;99591.19;6073244;23;20518;-90
2022/09/05 11:14:06;;;;;;;0.63;0.22;;;;;;;31.88;26.70;99586.75;6071809;23;20149;-91
2022/09/05 11:16:52;;;;;;;0.08;0.08;;;;;;;31.84;26.90;99585.47;6071863;23;20502;-91
2022/09/05 11:19:35;;;;;;;;;;;;;;;;;;;;;
2022/09/05 11:22:06;;;;;;;0.57;0.30;;;;;;;32.26;26.10;99578.84;6097989;23;20231;-90
2022/09/05 11:24:49;;;;;;;2.70;0.75;;;;;;;32.21;25.64;99573.22;6097568;23;20137;-90
2022/09/05 11:27:42;;;;;;;0.82;0.40;;;;;;;32.11;26.32;99578.22;6097467;23;20188;-89
2022/09/05 11:30:22;;;;;;;0.40;0.15;;;;;;;32.40;25.51;99574.25;6057941;23;20585;-89
2022/09/05 11:33:00;;;;;;;1.30;0.40;;;;;;;32.89;25.24;99560.22;6071555;23;20624;-91
2022/09/05 11:35:50;;;;;;;0.35;0.20;;;;;;;32.55;26.08;99561.31;6096803;23;20192;-91
2022/09/05 11:38:35;;;;;;;0.47;0.22;;;;;;;32.50;26.00;99561.09;6097492;23;20244;-89
2022/09/05 11:41:27;;;;;;;0.75;0.22;;;;;;;32.82;25.25;99560.22;6072352;23;20600;-90
2022/09/05 11:44:23;;;;;;;0.40;0.10;;;;;;;33.00;24.59;99554.09;6097216;23;20160;-90
2022/09/05 11:47:22;;;;;;;0.30;0.20;;;;;;;32.75;24.61;99554.00;6097784;23;20490;-91
2022/09/05 11:50:25;;;;;;;0.60;0.25;;;;;;;32.63;24.90;99542.94;6071622;23;20588;-90
2022/09/05 11:53:02;;;;;;;0.95;0.00;;;;;;;32.97;25.58;99539.06;6096922;23;20235;-91
2022/09/05 11:56:05;;;;;;;0.60;0.10;;;;;;;32.78;24.19;99531.84;6098386;23;20168;-91
2022/09/05 11:59:11;;;;;;;0.52;0.30;;;;;;;32.75;24.72;99534.97;6073305;23;20152;-88
2022/09/05 12:02:01;;;;;;;0.55;0.10;;;;;;;33.08;24.49;99530.28;6098710;23;20143;-88
2022/09/05 12:04:33;;;;;;;0.20;0.10;;;;;;;33.41;24.79;99528.22;6072691;23;20153;-90
2022/09/05 12:07:41;;;;;;;0.20;0.10;;;;;;;33.84;23.87;99522.13;6098704;23;20155;-90
2022/09/05 12:10:12;;;;;;;0.32;0.10;;;;;;;34.18;22.83;99510.78;6073178;23;20618;-90
2022/09/05 12:13:00;;;;;;;0.80;0.20;;;;;;;34.09;23.52;99506.69;6073134;23;20243;-90
2022/09/05 12:15:33;;;;;;;0.25;0.00;;;;;;;33.51;23.09;99513.34;6072939;23;20188;-89
2022/09/05 12:18:01;;;;;;;0.90;0.28;;;;;;;33.30;24.47;99507.19;6098376;23;20148;-89
2022/09/05 12:20:39;;;;;;;0.10;0.10;;;;;;;33.81;23.70;99508.97;6073031;23;20244;-89
2022/09/05 12:23:21;;;;;;;0.90;0.20;;;;;;;33.83;22.96;99498.72;6073086;23;20216;-90
2022/09/05 12:26:28;;;;;;;0.65;0.30;;;;;;;33.86;22.34;99503.69;6073656;23;20640;-90
2022/09/05 12:29:20;;;;;;;0.20;0.10;;;;;;;33.91;22.55;99504.69;5953575;24;20164;-90
2022/09/05 12:32:02;;;;;;;0.10;0.10;;;;;;;33.22;23.05;99504.75;5953117;24;20224;-90
2022/09/05 12:34:58;;;;;;;0.80;0.20;;;;;;;33.15;23.98;99493.03;6040569;23;20228;-90
2022/09/05 12:37:33;;;;;;;0.60;0.38;;;;;;;33.10;24.00;99501.00;6073174;23;20511;-90
2022/09/05 12:40:32;;;;;;;0.30;0.10;;;;;;;33.58;23.54;99493.25;6098355;23;20147;-90
2022/09/05 12:43:04;;;;;;;0.77;0.10;;;;;;;34.17;23.38;99490.09;6047074;23;20156;-90
2022/09/05 12:45:44;;;;;;;0.63;0.13;;;;;;;34.11;22.67;99488.25;6072722;23;20576;-90
2022/09/05 12:48:33;;;;;;;0.40;0.10;;;;;;;34.23;22.29;99485.59;6072450;23;20163;-89
2022/09/05 12:51:22;;;;;;;0.30;0.20;;;;;;;34.30;22.59;99492.69;6071171;23;20487;-90
2022/09/05 12:54:04;;;;;;;0.35;0.20;;;;;;;33.58;22.90;99493.25;6071647;23;20284;-90
2022/09/05 12:56:57;;;;;;;0.30;0.10;;;;;;;33.54;23.10;99485.72;6096867;23;20156;-90
2022/09/05 12:59:27;;;;;;;0.20;0.10;;;;;;;32.93;23.91;99482.69;6098044;23;20137;-90
2022/09/05 13:02:06;;;;;;;0.65;0.28;;;;;;;32.75;24.23;99486.09;6098132;23;20147;-90
2022/09/05 13:05:03;;;;;;;0.40;0.20;;;;;;;32.51;24.93;99475.91;6072435;23;20152;-90
2022/09/05 13:07:54;;;;;;;0.65;0.20;;;;;;;32.91;24.19;99472.06;6072625;23;20148;-89
2022/09/05 13:10:42;;;;;;;0.55;0.10;;;;;;;33.19;23.45;99467.13;6072439;23;20145;-90
2022/09/05 13:13:28;;;;;;;0.22;0.10;;;;;;;33.47;23.57;99464.00;6097606;23;20215;-89
2022/09/05 13:16:08;;;;;;;0.98;0.10;;;;;;;33.47;23.40;99480.31;6072537;23;20164;-90
2022/09/05 13:18:40;;;;;;;0.52;0.20;;;;;;;33.83;22.96;99475.06;6098384;23;20132;-90
2022/09/05 13:21:15;;;;;;;1.45;0.10;;;;;;;33.86;23.19;99476.50;6072274;23;20160;-90
2022/09/05 13:23:44;;;;;;;0.47;0.20;;;;;;;33.47;23.20;99479.47;6072840;23;20144;-89
2022/09/05 13:26:20;;;;;;;1.85;0.22;;;;;;;33.30;23.53;99479.19;6072378;23;20156;-90
2022/09/05 13:28:51;;;;;;;0.60;0.20;;;;;;;33.28;24.12;99473.94;6098299;23;20139;-90
2022/09/05 13:31:40;;;;;;;0.80;0.20;;;;;;;32.97;24.49;99473.06;6098157;23;20141;-90
2022/09/05 13:34:36;;;;;;;0.85;0.20;;;;;;;32.90;24.78;99473.09;6097654;23;20317;-90
2022/09/05 13:37:12;;;;;;;0.43;0.17;;;;;;;32.54;25.11;99472.81;6098223;23;20137;-90
2022/09/05 13:39:37;;;;;;;0.10;0.10;;;;;;;32.60;25.50;99471.97;6098018;23;20152;-89
2022/09/05 13:42:16;;;;;;;1.98;0.32;;;;;;;32.52;25.84;99475.72;6097751;23;20223;-89
2022/09/05 13:44:45;;;;;;;0.50;0.20;;;;;;;32.66;25.78;99479.22;6097409;23;20173;-89
2022/09/05 13:47:49;;;;;;;0.40;0.20;;;;;;;32.70;25.47;99477.78;6097399;23;20159;-88
2022/09/05 13:50:43;;;;;;;0.82;0.30;;;;;;;32.70;25.94;99485.91;6098119;23;20627;-90
2022/09/05 13:53:35;;;;;;;0.22;0.10;;;;;;;32.48;25.98;99485.31;6092956;23;20191;-89
2022/09/05 13:56:29;;;;;;;0.82;0.30;;;;;;;32.21;26.48;99489.13;6097720;23;20145;-89
2022/09/05 13:59:18;;;;;;;0.55;0.25;;;;;;;32.06;26.20;99477.66;6055474;23;20170;-89
2022/09/05 14:01:59;;;;;;;0.38;0.20;;;;;;;32.13;26.91;99481.19;6097641;23;20216;-90
2022/09/05 14:04:36;;;;;;;0.30;0.10;;;;;;;32.23;26.39;99487.84;6097899;23;20170;-90
2022/09/05 14:07:04;;;;;;;0.60;0.30;;;;;;;32.34;26.20;99488.28;6097564;23;20203;-90